Time;durP1;ratioP1;P1;durP2;ratioP2;P2;SDS_P1;SDS_P2;PMS_P1;PMS_P2;Temp;Humidity;BMP_temperature;BMP_pressure;BME280_temperature;BME280_humidity;BME280_pressure;Samples;Min_cycle;Max_cycle;Signal;HPM_P1;HPM_P2
2022/10/22 00:02:08;;;;;;;;;;;12.00;1.00;;;;;;5093931;28;20368;-89
2022/10/22 00:04:35;;;;;;;;;;;12.00;1.00;;;;;;5094327;28;19926;-90
2022/10/22 00:07:02;;;;;;;;;;;12.00;1.00;;;;;;5094121;28;19919;-90
2022/10/22 00:09:30;;;;;;;;;;;12.00;99.90;;;;;;5094041;28;19916;-89
2022/10/22 00:11:57;;;;;;;;;;;12.00;1.00;;;;;;5105232;28;20309;-89
2022/10/22 00:14:24;;;;;;;;;;;12.00;1.00;;;;;;5096696;28;19923;-89
2022/10/22 00:16:51;;;;;;;;;;;12.00;99.90;;;;;;5083269;28;19920;-89
2022/10/22 00:19:17;;;;;;;;;;;12.00;1.00;;;;;;5093871;28;19923;-88
2022/10/22 00:21:44;;;;;;;;;;;12.00;99.90;;;;;;5093927;28;19916;-89
2022/10/22 00:24:11;;;;;;;;;;;12.00;1.00;;;;;;5093625;28;19977;-89
2022/10/22 00:26:39;;;;;;;;;;;12.00;1.00;;;;;;5093329;28;20379;-89
2022/10/22 00:29:06;;;;;;;;;;;12.10;99.90;;;;;;5097792;28;19920;-89
2022/10/22 00:31:33;;;;;;;15.48;13.07;;;12.10;1.00;;;;;;5093891;28;20425;-90
2022/10/22 00:34:01;;;;;;;;;;;12.10;1.00;;;;;;5093435;28;20228;-89
2022/10/22 00:36:27;;;;;;;;;;;12.10;1.00;;;;;;5093558;28;19965;-89
2022/10/22 00:38:54;;;;;;;;;;;12.10;99.90;;;;;;5093603;28;19920;-89
2022/10/22 00:41:21;;;;;;;;;;;12.10;1.00;;;;;;5093721;28;19919;-89
2022/10/22 00:43:56;;;;;;;;;;;12.20;1.00;;;;;;5093649;28;19919;-89
2022/10/22 00:46:23;;;;;;;;;;;12.20;1.00;;;;;;5093683;28;19962;-90
2022/10/22 00:48:50;;;;;;;;;;;12.20;99.90;;;;;;5099633;28;19919;-89
2022/10/22 00:51:18;;;;;;;;;;;12.20;36.70;;;;;;5093542;28;19969;-89
2022/10/22 00:53:47;;;;;;;;;;;12.20;1.00;;;;;;5093295;28;19977;-89
2022/10/22 00:56:14;;;;;;;;;;;12.20;1.00;;;;;;5093570;28;19919;-89
2022/10/22 00:58:43;;;;;;;;;;;12.20;1.00;;;;;;5093075;28;19919;-89
2022/10/22 01:01:14;;;;;;;;;;;12.30;99.90;;;;;;5098813;28;19919;-89
2022/10/22 01:03:40;;;;;;;;;;;12.30;99.90;;;;;;5100985;28;19923;-89
2022/10/22 01:06:07;;;;;;;;;;;12.30;1.00;;;;;;5093337;28;20418;-89
2022/10/22 01:08:39;;;;;;;;;;;12.30;1.00;;;;;;5093017;28;19916;-89
2022/10/22 01:11:10;;;;;;;;;;;12.30;18.90;;;;;;5093269;28;19924;-89
2022/10/22 01:13:45;;;;;;;;;;;12.30;1.00;;;;;;5092739;28;20362;-89
2022/10/22 01:16:17;;;;;;;;;;;12.30;99.90;;;;;;5093399;28;19927;-89
2022/10/22 01:18:48;;;;;;;;;;;12.30;1.00;;;;;;5093451;28;19986;-89
2022/10/22 01:21:19;;;;;;;;;;;12.30;1.00;;;;;;5093093;28;20011;-89
2022/10/22 01:23:59;;;;;;;;;;;12.30;1.00;;;;;;5094384;28;19923;-89
2022/10/22 01:26:29;;;;;;;;;;;12.30;1.00;;;;;;5092569;28;19919;-89
2022/10/22 01:29:02;;;;;;;;;;;12.30;99.90;;;;;;5092987;28;19923;-88
2022/10/22 01:31:31;;;;;;;;;;;12.30;1.00;;;;;;5092982;28;19977;-89
2022/10/22 01:33:59;;;;;;;;;;;12.30;99.90;;;;;;5093081;28;19923;-89
2022/10/22 01:36:27;;;;;;;;;;;12.30;1.00;;;;;;5093577;28;20380;-88
2022/10/22 01:38:54;;;;;;;;;;;12.30;99.90;;;;;;5096856;28;19938;-89
2022/10/22 01:41:21;;;;;;;;;;;12.30;99.90;;;;;;5096822;28;19969;-89
2022/10/22 01:43:48;;;;;;;;;;;12.30;99.90;;;;;;5096951;28;19916;-89
2022/10/22 01:46:16;;;;;;;;;;;12.30;1.00;;;;;;5096930;28;19951;-89
2022/10/22 01:48:51;;;;;;;;;;;12.30;1.00;;;;;;5097214;28;19916;-90
2022/10/22 01:51:25;;;;;;;;;;;12.30;99.90;;;;;;5103836;28;19916;-89
2022/10/22 01:53:54;;;;;;;;;;;12.30;1.00;;;;;;5100787;28;19927;-90
2022/10/22 01:56:29;;;;;;;;;;;12.30;99.90;;;;;;5096843;28;19923;-89
2022/10/22 01:58:59;;;;;;;;;;;12.30;1.00;;;;;;5096541;28;19916;-88
2022/10/22 02:01:31;;;;;;;;;;;12.30;1.00;;;;;;5103312;28;19961;-89
2022/10/22 02:04:02;;;;;;;;;;;12.30;1.00;;;;;;5096546;28;19916;-89
2022/10/22 02:06:30;;;;;;;;;;;12.30;1.00;;;;;;5096148;28;19985;-89
2022/10/22 02:08:58;;;;;;;;;;;12.30;1.00;;;;;;5106266;28;19961;-89
2022/10/22 02:11:25;;;;;;;;;;;12.30;1.00;;;;;;5096233;28;20265;-89
2022/10/22 02:13:53;;;;;;;;;;;12.30;99.90;;;;;;5096226;28;19919;-89
2022/10/22 02:16:24;;;;;;;;;;;12.30;33.10;;;;;;5095640;28;19916;-89
2022/10/22 02:18:54;;;;;;;;;;;12.30;99.90;;;;;;5095856;28;20341;-89
2022/10/22 02:21:20;;;;;;;;;;;12.30;99.90;;;;;;5095473;28;19915;-89
2022/10/22 02:23:47;;;;;;;;;;;12.30;1.00;;;;;;5096199;28;20402;-89
2022/10/22 02:26:17;;;;;;;;;;;12.40;78.80;;;;;;5096066;28;20380;-89
2022/10/22 02:28:47;;;;;;;;;;;12.40;1.00;;;;;;5096668;28;19969;-89
2022/10/22 02:31:15;;;;;;;;;;;12.40;99.90;;;;;;5096280;28;20352;-89
2022/10/22 02:33:44;;;;;;;;;;;12.40;1.00;;;;;;5096404;28;19915;-89
2022/10/22 02:36:13;;;;;;;;;;;12.40;1.00;;;;;;5095899;28;19965;-89
2022/10/22 02:38:40;;;;;;;;;;;12.40;99.90;;;;;;5103082;28;20249;-89
2022/10/22 02:41:07;;;;;;;;;;;12.40;99.90;;;;;;5100775;28;19961;-90
2022/10/22 02:43:39;;;;;;;;;;;12.40;99.90;;;;;;5095568;28;19923;-89
2022/10/22 02:46:06;;;;;;;;;;;12.40;95.20;;;;;;5096027;28;19965;-88
2022/10/22 02:48:32;;;;;;;;;;;12.40;99.90;;;;;;5094658;28;19970;-89
2022/10/22 02:50:59;;;;;;;;;;;12.40;1.00;;;;;;5095792;28;19915;-89
2022/10/22 02:53:27;;;;;;;;;;;12.40;99.90;;;;;;5095400;28;19915;-89
2022/10/22 02:55:54;;;;;;;;;;;12.40;99.90;;;;;;5095796;28;20245;-88
2022/10/22 02:58:21;;;;;;;;;;;12.40;1.00;;;;;;5095414;28;19916;-89
2022/10/22 03:00:48;;;;;;;;;;;12.40;1.00;;;;;;5095575;28;19920;-89
2022/10/22 03:03:15;;;;;;;;;;;12.40;1.00;;;;;;5095830;28;19920;-89
2022/10/22 03:05:41;;;;;;;;;;;12.40;99.90;;;;;;5095563;28;19957;-89
2022/10/22 03:08:08;;;;;;;;;;;12.40;1.00;;;;;;5095393;28;19977;-89
2022/10/22 03:10:36;;;;;;;;;;;12.40;99.90;;;;;;5095207;28;20306;-89
2022/10/22 03:13:03;;;;;;;;;;;12.40;77.50;;;;;;5094951;28;19915;-89
2022/10/22 03:15:30;;;;;;;;;;;12.40;99.90;;;;;;5104763;28;19969;-89
2022/10/22 03:17:57;;;;;;;;;;;12.40;1.00;;;;;;5094701;28;19920;-89
2022/10/22 03:20:23;;;;;;;;;;;12.40;1.00;;;;;;5095012;28;19920;-89
2022/10/22 03:22:50;;;;;;;;;;;12.40;1.00;;;;;;5095135;28;19923;-89
2022/10/22 03:25:19;;;;;;;;;;;12.40;99.90;;;;;;5094973;28;19970;-89
2022/10/22 03:27:47;;;;;;;;;;;12.50;99.90;;;;;;5094969;28;19915;-89
2022/10/22 03:30:14;;;;;;;;;;;12.50;1.00;;;;;;5095262;28;19923;-89
2022/10/22 03:32:41;;;;;;;;;;;12.40;99.90;;;;;;5095083;28;20377;-89
2022/10/22 03:35:08;;;;;;;;;;;12.50;99.90;;;;;;5094661;28;20294;-90
2022/10/22 03:37:35;;;;;;;;;;;12.50;1.00;;;;;;5094623;28;19915;-89
2022/10/22 03:40:02;;;;;;;;;;;12.50;1.00;;;;;;5094843;28;19916;-89
2022/10/22 03:42:29;;;;;;;;;;;12.50;1.00;;;;;;5094160;28;20391;-89
2022/10/22 03:44:57;;;;;;;;;;;12.50;1.00;;;;;;5094615;28;19923;-89
2022/10/22 03:47:24;;;;;;;;;;;12.50;1.00;;;;;;5094417;28;19919;-89
2022/10/22 03:49:51;;;;;;;;;;;12.50;99.90;;;;;;5094440;28;20303;-89
2022/10/22 03:52:18;;;;;;;;;;;12.50;1.00;;;;;;5094579;28;19994;-89
2022/10/22 03:54:45;;;;;;;;;;;12.50;99.90;;;;;;5094793;28;19920;-90
2022/10/22 03:57:12;;;;;;;;;;;12.50;1.00;;;;;;5094597;28;19966;-89
2022/10/22 03:59:39;;;;;;;;;;;12.50;1.00;;;;;;5092757;28;19969;-89
2022/10/22 04:02:08;;;;;;;;;;;12.60;1.00;;;;;;5094242;28;19989;-88
2022/10/22 04:04:35;;;;;;;;;;;12.50;1.00;;;;;;5094229;28;19916;-88
2022/10/22 04:07:02;;;;;;;;;;;12.50;99.90;;;;;;5094325;28;19957;-89
2022/10/22 04:09:31;;;;;;;;;;;12.50;1.00;;;;;;5096556;28;19916;-89
2022/10/22 04:11:58;;;;;;;;;;;12.50;1.00;;;;;;5094280;28;20264;-89
2022/10/22 04:14:24;;;;;;;;;;;12.50;1.00;;;;;;5094227;28;19923;-89
2022/10/22 04:16:52;;;;;;;;;;;12.50;99.90;;;;;;5093965;28;19915;-89
2022/10/22 04:19:20;;;;;;;;;;;12.50;99.90;;;;;;5093629;28;19961;-89
2022/10/22 04:21:47;;;;;;;;;;;12.50;1.00;;;;;;5093817;28;19923;-89
2022/10/22 04:24:14;;;;;;;;;;;12.50;99.90;;;;;;5093925;28;19924;-89
2022/10/22 04:26:41;;;;;;;;;;;12.50;1.00;;;;;;5093755;28;19916;-88
2022/10/22 04:29:08;;;;;;;;;;;12.60;1.00;;;;;;5093800;28;19924;-89
2022/10/22 04:31:35;;;;;;;;;;;12.50;1.00;;;;;;5093825;28;19923;-89
2022/10/22 04:34:02;;;;;;;;;;;12.50;99.90;;;;;;5093244;28;19916;-89
2022/10/22 04:36:30;;;;;;;;;;;12.50;99.90;;;;;;5093672;28;20237;-90
2022/10/22 04:38:57;;;;;;;;;;;12.50;70.60;;;;;;5093313;28;20384;-90
2022/10/22 04:41:27;;;;;;;29.92;17.90;;;12.50;99.90;;;;;;5092385;28;20409;-90
2022/10/22 04:43:54;;;;;;;;;;;12.50;1.00;;;;;;5093462;28;20595;-90
2022/10/22 04:46:21;;;;;;;;;;;12.50;99.90;;;;;;5102373;28;19939;-89
2022/10/22 04:48:48;;;;;;;;;;;12.50;99.90;;;;;;5093495;28;20321;-89
2022/10/22 04:51:16;;;;;;;;;;;12.50;1.00;;;;;;5093814;28;19923;-90
2022/10/22 04:53:45;;;;;;;;;;;12.50;99.90;;;;;;5093747;28;20007;-88
2022/10/22 04:56:15;;;;;;;;;;;12.50;99.90;;;;;;5093559;28;19916;-90
2022/10/22 04:58:42;;;;;;;;;;;12.50;99.00;;;;;;5093353;28;19961;-89
2022/10/22 05:01:09;;;;;;;;;;;12.50;1.00;;;;;;5093093;28;19916;-89
2022/10/22 05:03:36;;;;;;;;;;;12.50;1.00;;;;;;5093502;28;20249;-89
2022/10/22 05:06:04;;;;;;;;;;;12.50;1.00;;;;;;5093378;28;19926;-89
2022/10/22 05:08:31;;;;;;;;;;;12.50;99.90;;;;;;5093298;28;19916;-89
2022/10/22 05:10:59;;;;;;;;;;;12.50;1.00;;;;;;5093059;28;19994;-89
2022/10/22 05:13:26;;;;;;;;;;;12.50;99.90;;;;;;5092590;28;19916;-89
2022/10/22 05:15:53;;;;;;;28.25;17.45;;;12.50;9.60;;;;;;5091597;28;20932;-89
2022/10/22 05:18:20;;;;;;;;;;;12.50;1.00;;;;;;5093078;28;20298;-89
2022/10/22 05:20:47;;;;;;;21.63;15.13;;;12.60;1.00;;;;;;5092201;28;20430;-89
2022/10/22 05:23:14;;;;;;;;;;;12.50;61.20;;;;;;5103386;28;20099;-89
2022/10/22 05:25:41;;;;;;;;;;;12.60;1.00;;;;;;5078707;28;19999;-89
2022/10/22 05:28:10;;;;;;;;;;;12.50;99.90;;;;;;5093182;28;19923;-89
2022/10/22 05:30:37;;;;;;;;;;;12.60;1.00;;;;;;5092804;28;19917;-89
2022/10/22 05:33:03;;;;;;;;;;;12.60;1.00;;;;;;5093013;28;19920;-89
2022/10/22 05:35:30;;;;;;;;;;;12.60;99.90;;;;;;5096657;28;19989;-89
2022/10/22 05:37:57;;;;;;;;;;;12.60;1.00;;;;;;5093214;28;19946;-89
2022/10/22 05:40:24;;;;;;;;;;;12.60;54.70;;;;;;5092784;28;19995;-89
2022/10/22 05:42:51;;;;;;;;;;;12.60;99.90;;;;;;5092743;28;19915;-89
2022/10/22 05:45:20;;;;;;;;;;;12.70;99.90;;;;;;5093239;28;19920;-90
2022/10/22 05:47:47;;;;;;;;;;;12.60;1.00;;;;;;5093230;28;19919;-90
2022/10/22 05:50:13;;;;;;;;;;;12.70;1.00;;;;;;5092896;28;20023;-89
2022/10/22 05:52:41;;;;;;;24.30;16.13;;;12.70;1.00;;;;;;5090950;28;20428;-89
2022/10/22 05:55:08;;;;;;;;;;;12.70;99.90;;;;;;5092884;28;20316;-89
2022/10/22 05:57:35;;;;;;;;;;;12.70;1.00;;;;;;5092838;28;19920;-89
2022/10/22 06:00:02;;;;;;;;;;;12.70;99.90;;;;;;5092318;28;19923;-89
2022/10/22 06:08:50;;;;;;;;;;;12.70;1.00;;;;;;5033119;28;19920;-87
2022/10/22 06:11:23;;;;;;;;;;;12.70;99.90;;;;;;5113706;28;19938;-92
2022/10/22 06:13:50;;;;;;;;;;;12.80;1.00;;;;;;5093755;28;19916;-89
2022/10/22 06:16:17;;;;;;;;;;;12.80;99.90;;;;;;5092683;28;19920;-88
2022/10/22 06:18:44;;;;;;;;;;;12.80;99.90;;;;;;5099276;28;19920;-91
2022/10/22 06:21:12;;;;;;;;;;;12.90;1.00;;;;;;5095307;28;19924;-92
2022/10/22 06:23:41;;;;;;;;;;;12.90;99.90;;;;;;5103965;28;19970;-91
2022/10/22 06:26:10;;;;;;;;;;;12.90;99.90;;;;;;5100712;28;20031;-90
2022/10/22 06:28:37;;;;;;;;;;;12.90;1.00;;;;;;5098386;28;19923;-90
2022/10/22 06:31:04;;;;;;;;;;;12.90;1.00;;;;;;5096679;28;19919;-89
2022/10/22 06:33:31;;;;;;;;;;;12.90;1.00;;;;;;5095859;28;19939;-89
2022/10/22 06:36:05;;;;;;;13.93;12.50;;;12.90;1.00;;;;;;5095321;28;20414;-90
2022/10/22 06:41:25;;;;;;;;;;;13.00;1.00;;;;;;5105651;28;19916;-91
2022/10/22 06:43:53;;;;;;;;;;;13.00;99.90;;;;;;5109050;28;19922;-88
2022/10/22 06:46:34;;;;;;;;;;;13.00;1.00;;;;;;5109724;28;19916;-91
2022/10/22 06:49:04;;;;;;;;;;;13.00;99.90;;;;;;5102919;28;20007;-90
2022/10/22 06:51:39;;;;;;;;;;;13.00;99.90;;;;;;5107220;28;20318;-90
2022/10/22 06:54:09;;;;;;;;;;;13.00;99.90;;;;;;5122849;28;19969;-93
2022/10/22 06:56:40;;;;;;;;;;;13.00;1.00;;;;;;5124866;28;19946;-95
2022/10/22 07:02:13;;;;;;;;;;;13.10;1.00;;;;;;5093199;28;19919;-92
2022/10/22 07:04:41;;;;;;;;;;;13.10;1.00;;;;;;5110265;28;19916;-89
2022/10/22 07:07:13;;;;;;;;;;;13.10;1.00;;;;;;5100392;28;20029;-90
2022/10/22 07:09:48;;;;;;;;;;;13.20;1.00;;;;;;5098487;28;19916;-91
2022/10/22 07:15:12;;;;;;;;;;;13.20;1.00;;;;;;5073896;28;20357;-90
2022/10/22 07:17:39;;;;;;;;;;;13.30;37.40;;;;;;5106743;28;19922;-88
2022/10/22 07:20:07;;;;;;;;;;;13.30;1.00;;;;;;5102206;28;19958;-90
2022/10/22 07:25:30;;;;;;;;;;;13.40;1.00;;;;;;5077914;28;20012;-91
2022/10/22 07:27:57;;;;;;;;;;;13.40;1.00;;;;;;5099082;28;19955;-90
2022/10/22 07:30:49;;;;;;;;;;;13.40;1.00;;;;;;5099840;28;19916;-91
2022/10/22 07:33:16;;;;;;;;;;;13.50;1.00;;;;;;5105732;28;19916;-89
2022/10/22 07:35:43;;;;;;;;;;;13.50;1.00;;;;;;5097110;28;19916;-91
2022/10/22 07:38:34;;;;;;;;;;;13.50;1.00;;;;;;5099469;28;19916;-92
2022/10/22 07:41:29;;;;;;;;;;;13.50;1.00;;;;;;5105028;28;20018;-91
2022/10/22 07:44:01;;;;;;;;;;;13.60;1.00;;;;;;5091766;28;19923;-92
2022/10/22 07:46:30;;;;;;;;;;;13.60;99.90;;;;;;5096932;28;20004;-90
2022/10/22 07:49:14;;;;;;;;;;;13.60;99.90;;;;;;5095360;28;19916;-91
2022/10/22 07:51:41;;;;;;;;;;;13.70;68.70;;;;;;5099640;28;19916;-88
2022/10/22 07:54:08;;;;;;;;;;;13.70;1.00;;;;;;5099185;28;19916;-88
2022/10/22 07:56:35;;;;;;;;;;;13.70;99.90;;;;;;5100634;28;20257;-91
2022/10/22 07:59:09;;;;;;;;;;;13.70;99.90;;;;;;5105426;28;19939;-92
2022/10/22 08:01:38;;;;;;;;;;;13.80;99.90;;;;;;5094976;28;20349;-89
2022/10/22 08:04:07;;;;;;;;;;;13.80;99.90;;;;;;5101204;28;20425;-88
2022/10/22 08:06:34;;;;;;;;;;;13.90;1.00;;;;;;5120083;28;19999;-90
2022/10/22 08:09:02;;;;;;;;;;;13.90;1.00;;;;;;5094505;28;19923;-91
2022/10/22 08:11:29;;;;;;;;;;;14.00;99.90;;;;;;5094091;28;20268;-91
2022/10/22 08:13:56;;;;;;;;;;;14.00;99.90;;;;;;5092821;28;19920;-90
2022/10/22 08:16:22;;;;;;;;;;;14.10;99.90;;;;;;5094326;28;20337;-91
2022/10/22 08:18:52;;;;;;;;;;;14.00;99.90;;;;;;5093289;28;19916;-91
2022/10/22 08:21:18;;;;;;;;;;;14.10;99.90;;;;;;5093750;28;20014;-89
2022/10/22 08:23:45;;;;;;;;;;;14.10;99.90;;;;;;5091658;28;19920;-91
2022/10/22 08:26:12;;;;;;;;;;;14.20;99.90;;;;;;5093476;28;19915;-91
2022/10/22 08:28:40;;;;;;;;;;;14.20;99.90;;;;;;5091663;28;19988;-90
2022/10/22 08:31:07;;;;;;;;;;;14.10;1.00;;;;;;5093511;28;19916;-89
2022/10/22 08:33:35;;;;;;;;;;;14.20;99.90;;;;;;5109485;28;19916;-90
2022/10/22 08:36:03;;;;;;;;;;;14.20;99.90;;;;;;5097297;28;19923;-89
2022/10/22 08:38:31;;;;;;;;;;;14.20;99.90;;;;;;5094561;28;20016;-90
2022/10/22 08:41:03;;;;;;;;;;;14.20;99.90;;;;;;5093788;28;19938;-90
2022/10/22 08:46:39;;;;;;;;;;;14.20;99.90;;;;;;5095127;28;19916;-92
2022/10/22 08:52:18;;;;;;;;;;;14.30;1.00;;;;;;5086122;28;19916;-89
2022/10/22 08:54:50;;;;;;;;;;;14.30;1.00;;;;;;5098264;28;19927;-89
2022/10/22 08:57:39;;;;;;;;;;;14.30;99.90;;;;;;5105631;28;19920;-91
2022/10/22 09:00:11;;;;;;;;;;;14.30;1.00;;;;;;5092787;28;20018;-87
2022/10/22 09:02:41;;;;;;;;;;;14.30;1.00;;;;;;5078467;28;20372;-87
2022/10/22 09:05:18;;;;;;;;;;;14.30;1.00;;;;;;5093370;28;19916;-88
2022/10/22 09:07:48;;;;;;;;;;;14.30;1.00;;;;;;5078131;28;19949;-88
2022/10/22 09:10:23;;;;;;;;;;;14.30;1.00;;;;;;5093343;28;19920;-89
2022/10/22 09:12:51;;;;;;;;;;;14.30;1.00;;;;;;5094757;28;19931;-87
2022/10/22 09:15:19;;;;;;;;;;;14.40;1.00;;;;;;5093008;28;19920;-88
2022/10/22 09:17:52;;;;;;;;;;;14.40;1.00;;;;;;5100397;28;19919;-89
2022/10/22 09:20:29;;;;;;;;;;;14.40;1.00;;;;;;5091415;28;19916;-88
2022/10/22 09:23:00;;;;;;;;;;;14.50;1.00;;;;;;5090981;28;19924;-89
2022/10/22 09:25:38;;;;;;;;;;;14.50;1.00;;;;;;5091361;28;19916;-91
2022/10/22 09:28:05;;;;;;;;;;;14.60;1.00;;;;;;5095658;28;19920;-88
2022/10/22 09:30:35;;;;;;;;;;;14.60;1.00;;;;;;5092418;28;19982;-89
2022/10/22 09:33:07;;;;;;;;;;;14.70;1.00;;;;;;5088271;28;19915;-88
2022/10/22 09:35:34;;;;;;;;;;;14.70;1.00;;;;;;5102221;28;19916;-90
2022/10/22 09:38:08;;;;;;;;;;;14.70;1.00;;;;;;5093860;28;19922;-89
2022/10/22 09:40:43;;;;;;;;;;;14.70;1.00;;;;;;5092686;28;20007;-89
2022/10/22 09:43:12;;;;;;;;;;;14.80;1.00;;;;;;5092911;28;19923;-89
2022/10/22 09:45:39;;;;;;;;;;;14.80;1.00;;;;;;5092959;28;19939;-88
2022/10/22 09:48:31;;;;;;;;;;;14.80;99.90;;;;;;5105235;28;19920;-94
2022/10/22 09:51:07;;;;;;;;;;;14.90;1.00;;;;;;5116351;28;19904;-94
2022/10/22 09:53:36;;;;;;;;;;;14.90;1.00;;;;;;5093333;28;19916;-90
2022/10/22 09:56:08;;;;;;;;;;;14.90;99.90;;;;;;5092932;28;19916;-89
2022/10/22 09:58:41;;;;;;;;;;;14.90;99.90;;;;;;5095111;28;19959;-89
2022/10/22 10:01:08;;;;;;;;;;;14.90;99.90;;;;;;5095687;28;19916;-90
2022/10/22 10:03:36;;;;;;;;;;;14.80;99.90;;;;;;5095770;28;19920;-90
2022/10/22 10:06:03;;;;;;;;;;;14.80;99.90;;;;;;5096788;28;19965;-88
2022/10/22 10:08:30;;;;;;;;;;;14.70;99.90;;;;;;5096381;28;19920;-89
2022/10/22 10:10:59;;;;;;;;;;;14.70;99.90;;;;;;5103429;28;19916;-88
2022/10/22 10:13:37;;;;;;;;;;;14.60;99.90;;;;;;5116875;28;19915;-89
2022/10/22 10:16:08;;;;;;;;;;;14.60;99.90;;;;;;5117642;28;20299;-91
2022/10/22 10:18:43;;;;;;;;;;;14.70;99.90;;;;;;5120612;28;19923;-89
2022/10/22 10:21:16;;;;;;;;;;;14.60;99.90;;;;;;5094242;28;19973;-89
2022/10/22 10:23:48;;;;;;;;;;;14.60;99.90;;;;;;5096042;28;20407;-89
2022/10/22 10:26:18;;;;;;;;;;;14.70;99.90;;;;;;5095189;28;19915;-88
2022/10/22 10:28:55;;;;;;;;;;;14.70;1.00;;;;;;5095219;28;19924;-89
2022/10/22 10:31:27;;;;;;;;;;;14.70;99.90;;;;;;5082232;28;19916;-89
2022/10/22 10:34:01;;;;;;;;;;;14.80;99.90;;;;;;5100862;28;19941;-88
2022/10/22 10:36:38;;;;;;;18.75;14.25;;;14.70;99.90;;;;;;5081869;28;20404;-89
2022/10/22 10:39:07;;;;;;;;;;;14.70;99.90;;;;;;5095805;28;20224;-89
2022/10/22 10:41:39;;;;;;;;;;;14.70;99.90;;;;;;5096206;28;19977;-88
2022/10/22 10:44:24;;;;;;;;;;;14.70;99.90;;;;;;5096361;28;19916;-89
2022/10/22 10:46:59;;;;;;;;;;;14.70;99.80;;;;;;5084535;28;19915;-89
2022/10/22 10:49:29;;;;;;;;;;;14.60;99.90;;;;;;5096371;28;19955;-89
2022/10/22 10:51:58;;;;;;;;;;;14.60;88.50;;;;;;5096773;28;19928;-89
2022/10/22 10:54:31;;;;;;;;;;;14.60;99.90;;;;;;5096408;28;19998;-89
2022/10/22 10:57:00;;;;;;;;;;;14.70;99.90;;;;;;5096898;28;19916;-90
2022/10/22 10:59:32;;;;;;;;;;;14.70;99.90;;;;;;5095310;28;19916;-89
2022/10/22 11:02:17;;;;;;;;;;;14.70;99.90;;;;;;5081379;28;20352;-89
2022/10/22 11:04:59;;;;;;;;;;;14.70;99.90;;;;;;5102843;28;19923;-88
2022/10/22 11:07:28;;;;;;;;;;;14.70;99.90;;;;;;5090230;28;20015;-90
2022/10/22 11:09:57;;;;;;;;;;;14.80;99.90;;;;;;5093895;28;19923;-87
2022/10/22 11:12:27;;;;;;;;;;;14.80;99.90;;;;;;5098696;28;19920;-88
2022/10/22 11:14:59;;;;;;;;;;;14.90;99.90;;;;;;5113713;28;19916;-90
2022/10/22 11:17:32;;;;;;;;;;;14.90;99.90;;;;;;5093666;28;19920;-93
2022/10/22 11:20:00;;;;;;;;;;;14.90;2.00;;;;;;5094808;28;19916;-88
2022/10/22 11:22:33;;;;;;;;;;;14.90;1.00;;;;;;5095899;28;19915;-93
2022/10/22 11:25:08;;;;;;;;;;;14.90;1.00;;;;;;5118659;28;19915;-92
2022/10/22 11:27:37;;;;;;;;;;;14.90;1.00;;;;;;5106976;28;19916;-89
2022/10/22 11:30:05;;;;;;;;;;;14.90;1.00;;;;;;5111095;28;19923;-94
2022/10/22 11:32:34;;;;;;;;;;;14.90;1.00;;;;;;5094467;28;19916;-88
2022/10/22 11:35:02;;;;;;;;;;;14.90;1.00;;;;;;5096944;28;20530;-88
2022/10/22 11:37:33;;;;;;;;;;;14.90;1.00;;;;;;5109140;28;19932;-90
2022/10/22 11:52:28;;;;;;;;;;;15.00;99.90;;;;;;5089127;28;19924;-91
2022/10/22 11:58:22;;;;;;;;;;;15.00;1.00;;;;;;5087967;28;19951;-88
2022/10/22 12:00:49;;;;;;;;;;;15.00;1.00;;;;;;5090420;28;19947;-89
2022/10/22 12:03:17;;;;;;;;;;;15.00;1.00;;;;;;5100796;28;19920;-89
2022/10/22 12:05:46;;;;;;;;;;;15.00;1.00;;;;;;5093827;28;19981;-87
2022/10/22 12:08:20;;;;;;;;;;;15.10;1.00;;;;;;5098542;28;19916;-89
2022/10/22 12:10:55;;;;;;;;;;;15.00;1.00;;;;;;5098947;28;19920;-90
2022/10/22 12:13:23;;;;;;;;;;;15.10;1.00;;;;;;5096653;28;21571;-88
2022/10/22 12:16:07;;;;;;;;;;;15.10;1.00;;;;;;5094821;28;19920;-89
2022/10/22 12:18:39;;;;;;;;;;;15.10;1.00;;;;;;5098026;28;19938;-88
2022/10/22 12:21:14;;;;;;;;;;;15.20;1.00;;;;;;5101881;28;20422;-89
2022/10/22 12:23:58;;;;;;;;;;;15.20;1.00;;;;;;5104281;28;19926;-91
2022/10/22 12:26:26;;;;;;;;;;;15.20;1.00;;;;;;5104541;28;19981;-87
2022/10/22 12:28:56;;;;;;;;;;;15.20;1.00;;;;;;5092999;28;19920;-87
2022/10/22 12:31:23;;;;;;;;;;;15.20;1.00;;;;;;5093461;28;19961;-86
2022/10/22 12:33:55;;;;;;;;;;;15.30;1.00;;;;;;5093567;28;20402;-85
2022/10/22 12:36:25;;;;;;;;;;;15.30;1.00;;;;;;5092578;28;19916;-87
2022/10/22 12:38:52;;;;;;;;;;;15.30;99.90;;;;;;5088753;28;19916;-86
2022/10/22 12:41:19;;;;;;;;;;;15.30;99.90;;;;;;5094377;28;19923;-88
2022/10/22 12:43:46;;;;;;;;;;;15.30;99.90;;;;;;5093042;28;19916;-90
2022/10/22 12:46:15;;;;;;;;;;;15.30;1.00;;;;;;5100461;28;19919;-87
2022/10/22 12:48:43;;;;;;;;;;;15.30;99.90;;;;;;5092477;28;20009;-92
2022/10/22 12:51:14;;;;;;;;;;;15.30;99.90;;;;;;5098914;28;19915;-89
2022/10/22 12:53:45;;;;;;;;;;;15.30;99.90;;;;;;5093403;28;20414;-85
2022/10/22 12:56:14;;;;;;;;;;;15.30;81.50;;;;;;5093545;28;19919;-91
2022/10/22 12:58:43;;;;;;;;;;;15.40;1.00;;;;;;5093375;28;19970;-88
2022/10/22 13:01:10;;;;;;;;;;;15.40;1.00;;;;;;5092788;28;19916;-87
2022/10/22 13:03:42;;;;;;;;;;;15.30;1.00;;;;;;5090638;28;20430;-87
2022/10/22 13:06:12;;;;;;;;;;;15.40;99.90;;;;;;5093139;28;19916;-87
2022/10/22 13:08:40;;;;;;;;;;;15.40;99.90;;;;;;5087002;28;19916;-89
2022/10/22 13:11:09;;;;;;;;;;;15.30;99.90;;;;;;5090414;28;19916;-90
2022/10/22 13:13:44;;;;;;;;;;;15.30;99.90;;;;;;5090011;28;19915;-89
2022/10/22 13:16:19;;;;;;;;;;;15.30;99.90;;;;;;5086009;28;19952;-92
2022/10/22 13:18:46;;;;;;;;;;;15.30;99.90;;;;;;5092615;28;19916;-90
2022/10/22 13:21:30;;;;;;;;;;;15.40;92.60;;;;;;5095611;28;19923;-88
2022/10/22 13:23:58;;;;;;;;;;;15.40;99.90;;;;;;5094703;28;19941;-89
2022/10/22 13:26:30;;;;;;;;;;;15.40;15.00;;;;;;5093101;28;20002;-88
2022/10/22 13:28:59;;;;;;;;;;;15.50;1.00;;;;;;5093775;28;19954;-89
2022/10/22 13:31:28;;;;;;;;;;;15.50;1.00;;;;;;5095699;28;19969;-90
2022/10/22 13:33:55;;;;;;;;;;;15.60;1.00;;;;;;5098443;28;20306;-91
2022/10/22 13:36:23;;;;;;;;;;;15.60;99.90;;;;;;5099348;28;19955;-90
2022/10/22 13:38:50;;;;;;;;;;;15.60;99.90;;;;;;5097567;28;19920;-89
2022/10/22 13:41:21;;;;;;;;;;;15.60;90.50;;;;;;5097363;28;20369;-88
2022/10/22 13:43:49;;;;;;;;;;;15.60;1.00;;;;;;5097468;28;19943;-91
2022/10/22 13:46:16;;;;;;;;;;;15.60;1.00;;;;;;5097389;28;19923;-89
2022/10/22 13:48:44;;;;;;;;;;;15.60;52.50;;;;;;5097318;28;19965;-89
2022/10/22 13:51:14;;;;;;;;;;;15.60;1.00;;;;;;5098434;28;19969;-90
2022/10/22 13:53:41;;;;;;;;;;;15.60;1.00;;;;;;5098159;28;20328;-91
2022/10/22 13:56:10;;;;;;;;;;;15.60;99.90;;;;;;5097663;28;19924;-88
2022/10/22 13:58:37;;;;;;;;;;;15.60;99.90;;;;;;5097111;28;19970;-88
2022/10/22 14:01:07;;;;;;;;;;;15.60;99.90;;;;;;5096564;28;19915;-89
2022/10/22 14:03:36;;;;;;;;;;;15.60;99.90;;;;;;5097126;28;19928;-88
2022/10/22 14:06:02;;;;;;;;;;;15.70;99.90;;;;;;5096618;28;19916;-88
2022/10/22 14:08:29;;;;;;;;;;;15.60;1.00;;;;;;5097123;28;19920;-90
2022/10/22 14:10:56;;;;;;;;;;;15.60;99.90;;;;;;5097128;28;19939;-88
2022/10/22 14:13:23;;;;;;;;;;;15.70;99.90;;;;;;5096111;28;20368;-89
2022/10/22 14:16:14;;;;;;;;;;;15.70;99.90;;;;;;5112959;28;19916;-92
2022/10/22 14:18:45;;;;;;;;;;;15.80;99.90;;;;;;5120435;28;19916;-92
2022/10/22 14:21:13;;;;;;;;;;;15.80;96.90;;;;;;5103769;28;19916;-85
2022/10/22 14:33:01;;;;;;;;;;;16.50;96.30;;;;;;4997922;28;19917;-94
2022/10/22 14:54:09;;;;;;;74.60;45.47;;;22.30;26.60;;;;;;5167901;27;20583;-65
2022/10/22 14:56:36;;;;;;;50.80;33.40;;;20.20;99.90;;;;;;5151405;27;20511;-65
2022/10/22 14:59:03;;;;;;;47.38;31.23;;;18.60;1.00;;;;;;5151959;27;20224;-64
2022/10/22 15:01:30;;;;;;;43.50;29.47;;;17.30;41.30;;;;;;5151575;27;20191;-64
2022/10/22 15:03:57;;;;;;;44.70;32.38;;;16.60;1.00;;;;;;5151626;27;20197;-66
2022/10/22 15:06:24;;;;;;;55.17;36.83;;;16.20;1.00;;;;;;5151508;27;20188;-66
2022/10/22 15:08:52;;;;;;;48.33;31.67;;;15.80;99.90;;;;;;5159709;27;20188;-62
2022/10/22 15:11:21;;;;;;;50.60;32.50;;;15.50;1.00;;;;;;5160264;27;20196;-67
2022/10/22 15:13:48;;;;;;;56.27;37.20;;;15.40;1.00;;;;;;5151307;27;20275;-66
2022/10/22 15:16:17;;;;;;;65.37;42.97;;;15.20;1.00;;;;;;5151420;27;20241;-65
2022/10/22 15:18:44;;;;;;;66.73;41.63;;;15.10;1.00;;;;;;5151375;27;20218;-67
2022/10/22 15:21:15;;;;;;;75.93;49.40;;;15.10;1.00;;;;;;5151361;27;20188;-65
2022/10/22 15:23:42;;;;;;;53.47;35.23;;;15.00;40.20;;;;;;5151353;27;20233;-66
2022/10/22 15:26:11;;;;;;;71.30;44.67;;;15.00;99.90;;;;;;5150842;27;20248;-64
2022/10/22 15:28:43;;;;;;;69.33;44.63;;;15.00;99.90;;;;;;5151002;27;20244;-67
2022/10/22 15:31:16;;;;;;;82.47;52.03;;;14.90;99.90;;;;;;5151092;27;20300;-68
2022/10/22 15:33:56;;;;;;;159.03;71.73;;;14.90;99.90;;;;;;5150343;27;20200;-71
2022/10/22 15:36:36;;;;;;;;;;;;;;;;;;;;;
2022/10/22 15:39:21;;;;;;;184.17;84.60;;;14.80;99.90;;;;;;5145081;27;20189;-70